createdAt,value
2023-03-08T00:01:36.393Z,7.50
2023-03-08T00:04:07.084Z,11.80
2023-03-08T00:06:35.956Z,8.70
2023-03-08T00:09:09.150Z,8.45
2023-03-08T00:11:40.488Z,13.23
2023-03-08T00:14:08.596Z,14.18
2023-03-08T00:16:37.393Z,10.85
2023-03-08T00:19:06.557Z,11.52
2023-03-08T00:21:35.220Z,13.02
2023-03-08T00:24:03.596Z,11.70
2023-03-08T00:26:32.163Z,11.35
2023-03-08T00:29:04.660Z,11.20
2023-03-08T00:31:32.872Z,10.90
2023-03-08T00:34:01.621Z,12.88
2023-03-08T00:36:29.682Z,18.58
2023-03-08T00:38:58.414Z,9.57
2023-03-08T00:41:26.666Z,13.27
2023-03-08T00:43:55.119Z,13.30
2023-03-08T00:46:27.866Z,12.80
2023-03-08T00:48:56.062Z,13.00
2023-03-08T00:51:26.216Z,12.88
2023-03-08T00:53:54.699Z,16.77
2023-03-08T00:56:23.158Z,12.98
2023-03-08T00:58:51.639Z,19.02
2023-03-08T01:01:20.916Z,18.52
2023-03-08T01:03:51.170Z,14.00
2023-03-08T01:06:20.064Z,14.93
2023-03-08T01:08:48.105Z,16.52
2023-03-08T01:11:19.085Z,20.55
2023-03-08T01:13:49.006Z,17.98
2023-03-08T01:16:23.141Z,17.42
2023-03-08T01:18:53.870Z,24.48
2023-03-08T01:21:22.445Z,20.25
2023-03-08T01:23:50.993Z,17.52
2023-03-08T01:26:21.753Z,22.73
2023-03-08T01:28:52.818Z,22.42
2023-03-08T01:31:24.729Z,22.95
2023-03-08T01:33:57.548Z,24.63
2023-03-08T01:36:27.244Z,24.60
2023-03-08T01:38:55.494Z,17.52
2023-03-08T01:41:25.907Z,24.42
2023-03-08T01:43:56.432Z,29.08
2023-03-08T01:46:27.267Z,19.52
2023-03-08T01:49:03.841Z,31.52
2023-03-08T01:51:36.551Z,20.55
2023-03-08T01:54:08.460Z,31.40
2023-03-08T01:56:37.767Z,25.67
2023-03-08T01:59:07.920Z,26.38
2023-03-08T02:01:36.927Z,24.38
2023-03-08T02:04:08.724Z,24.10
2023-03-08T02:06:37.086Z,26.65
2023-03-08T02:09:05.898Z,25.95
2023-03-08T02:11:35.214Z,23.00
2023-03-08T02:14:03.507Z,23.73
2023-03-08T02:16:31.602Z,25.35
2023-03-08T02:19:01.566Z,31.58
2023-03-08T02:21:32.139Z,27.80
2023-03-08T02:24:07.796Z,22.77
2023-03-08T02:26:38.625Z,22.05
2023-03-08T02:29:06.759Z,25.02
2023-03-08T02:31:34.830Z,32.08
2023-03-08T02:34:03.190Z,28.70
2023-03-08T02:36:31.668Z,25.58
2023-03-08T02:39:00.296Z,29.75
2023-03-08T02:41:29.848Z,27.70
2023-03-08T02:43:58.368Z,27.08
2023-03-08T02:46:27.995Z,20.70
2023-03-08T02:48:56.293Z,23.77
2023-03-08T02:51:25.940Z,26.40
2023-03-08T02:53:55.066Z,22.73
2023-03-08T02:56:23.514Z,25.23
2023-03-08T02:58:53.354Z,25.45
2023-03-08T03:01:21.746Z,26.48
2023-03-08T03:03:50.256Z,27.17
2023-03-08T03:06:20.697Z,25.55
2023-03-08T03:08:49.237Z,26.52
2023-03-08T03:11:19.255Z,24.15
2023-03-08T03:13:48.310Z,28.25
2023-03-08T03:16:18.635Z,25.40
2023-03-08T03:18:47.006Z,30.38
2023-03-08T03:21:15.498Z,26.63
2023-03-08T03:23:43.857Z,28.23
2023-03-08T03:26:16.746Z,25.30
2023-03-08T03:28:45.492Z,29.63
2023-03-08T03:31:15.331Z,25.27
2023-03-08T03:33:47.964Z,26.10
2023-03-08T03:36:18.547Z,29.75
2023-03-08T03:38:48.380Z,24.15
2023-03-08T03:41:18.558Z,22.85
2023-03-08T03:43:47.430Z,23.15
2023-03-08T03:46:17.227Z,24.65
2023-03-08T03:48:47.261Z,21.13
2023-03-08T03:51:19.637Z,31.15
2023-03-08T03:53:48.711Z,20.77
2023-03-08T03:56:20.348Z,30.00
2023-03-08T03:58:49.183Z,24.10
2023-03-08T04:01:20.971Z,25.30
2023-03-08T04:03:50.787Z,26.50
2023-03-08T04:06:20.739Z,23.80
2023-03-08T04:08:49.568Z,23.17
2023-03-08T04:11:19.815Z,22.63
2023-03-08T04:13:48.429Z,22.30
2023-03-08T04:16:18.271Z,20.05
2023-03-08T04:18:47.062Z,23.77
2023-03-08T04:21:16.520Z,25.10
2023-03-08T04:23:44.713Z,22.27
2023-03-08T04:26:14.360Z,20.83
2023-03-08T04:28:43.651Z,24.08
2023-03-08T04:31:14.772Z,22.23
2023-03-08T04:33:43.619Z,26.05
2023-03-08T04:36:14.041Z,20.10
2023-03-08T04:38:47.025Z,27.08
2023-03-08T04:41:15.708Z,23.05
2023-03-08T04:43:46.627Z,23.30
2023-03-08T04:46:16.089Z,27.00
2023-03-08T04:48:44.985Z,21.58
2023-03-08T04:51:15.056Z,21.55
2023-03-08T04:53:45.685Z,25.20
2023-03-08T04:56:16.593Z,27.08
2023-03-08T04:58:45.198Z,25.67
2023-03-08T05:01:16.873Z,27.05
2023-03-08T05:03:45.854Z,24.05
2023-03-08T05:06:17.127Z,29.95
2023-03-08T05:08:46.720Z,24.63
2023-03-08T05:11:18.725Z,28.17
2023-03-08T05:13:49.702Z,26.52
2023-03-08T05:16:18.260Z,29.15
2023-03-08T05:18:47.903Z,28.48
2023-03-08T05:21:17.232Z,26.52
2023-03-08T05:23:48.542Z,26.55
2023-03-08T05:26:17.894Z,29.85
2023-03-08T05:28:46.341Z,24.33
2023-03-08T05:31:17.454Z,27.05
2023-03-08T05:33:52.309Z,30.85
2023-03-08T05:36:20.992Z,31.38
2023-03-08T05:38:53.893Z,26.33
2023-03-08T05:41:22.653Z,30.70
2023-03-08T05:43:50.876Z,27.10
2023-03-08T05:46:20.835Z,27.63
2023-03-08T05:48:50.878Z,26.55
2023-03-08T05:51:21.159Z,27.52
2023-03-08T05:53:51.459Z,25.88
2023-03-08T05:56:21.527Z,25.08
2023-03-08T05:58:50.609Z,26.67
2023-03-08T06:01:25.052Z,29.50
2023-03-08T06:03:55.906Z,30.63
2023-03-08T06:06:25.703Z,28.80
2023-03-08T06:08:56.345Z,24.23
2023-03-08T06:11:25.222Z,25.25
2023-03-08T06:13:54.738Z,26.17
2023-03-08T06:16:24.176Z,27.00
2023-03-08T06:18:52.412Z,25.40
2023-03-08T06:21:21.910Z,26.05
2023-03-08T06:23:50.302Z,27.30
2023-03-08T06:26:20.144Z,22.10
2023-03-08T06:28:49.770Z,20.90
2023-03-08T06:31:19.757Z,23.42
2023-03-08T06:33:47.946Z,19.73
2023-03-08T06:36:20.040Z,22.48
2023-03-08T06:41:30.931Z,19.05
2023-03-08T06:44:00.421Z,21.98
2023-03-08T06:46:32.269Z,22.17
2023-03-08T06:49:01.542Z,17.65
2023-03-08T06:51:30.320Z,20.35
2023-03-08T06:54:09.561Z,16.58
2023-03-08T06:56:40.699Z,15.93
2023-03-08T06:59:09.058Z,19.47
2023-03-08T07:01:41.874Z,15.23
2023-03-08T07:04:10.125Z,17.70
2023-03-08T07:07:08.066Z,20.27
2023-03-08T07:09:40.445Z,18.42
2023-03-08T07:12:10.426Z,18.30
2023-03-08T07:14:38.481Z,16.85
2023-03-08T07:17:06.694Z,14.63
2023-03-08T07:19:34.969Z,18.15
2023-03-08T07:22:03.203Z,15.30
2023-03-08T07:24:37.794Z,15.93
2023-03-08T07:27:08.692Z,15.07
2023-03-08T07:29:38.132Z,15.30
2023-03-08T07:32:07.356Z,11.02
2023-03-08T07:34:35.615Z,15.00
2023-03-08T07:37:04.723Z,12.82
2023-03-08T07:39:35.865Z,15.73
2023-03-08T07:42:04.150Z,21.95
2023-03-08T07:44:32.478Z,16.73
2023-03-08T07:47:03.365Z,15.88
2023-03-08T07:49:32.010Z,13.27
2023-03-08T07:52:00.424Z,11.00
2023-03-08T07:54:28.525Z,12.63
2023-03-08T07:56:57.115Z,12.68
2023-03-08T07:59:25.879Z,12.57
2023-03-08T08:01:54.898Z,11.85
2023-03-08T08:04:25.189Z,14.60
2023-03-08T08:06:54.590Z,13.23
2023-03-08T08:09:22.825Z,10.52
2023-03-08T08:11:52.675Z,12.85
2023-03-08T08:14:21.415Z,11.98
2023-03-08T08:16:49.718Z,10.70
2023-03-08T08:19:18.155Z,9.88
2023-03-08T08:21:47.913Z,10.65
2023-03-08T08:24:17.213Z,12.73
2023-03-08T08:26:45.959Z,13.30
2023-03-08T08:29:14.792Z,9.38
2023-03-08T08:31:42.964Z,11.48
2023-03-08T08:34:11.437Z,11.63
2023-03-08T08:36:40.953Z,11.38
2023-03-08T08:39:10.568Z,8.73
2023-03-08T08:41:38.984Z,12.32
2023-03-08T08:44:08.589Z,9.65
2023-03-08T08:46:36.731Z,9.60
2023-03-08T08:49:06.441Z,9.77
2023-03-08T08:51:34.489Z,11.65
2023-03-08T08:54:02.875Z,10.07
2023-03-08T08:56:42.737Z,9.07
2023-03-08T08:59:11.825Z,11.55
2023-03-08T09:01:43.761Z,10.88
2023-03-08T09:04:13.464Z,12.55
2023-03-08T09:06:43.838Z,14.13
2023-03-08T09:09:12.397Z,10.80
2023-03-08T09:11:54.331Z,11.43
2023-03-08T09:16:52.770Z,11.82
2023-03-08T09:19:22.229Z,9.88
2023-03-08T09:21:50.584Z,7.97
2023-03-08T09:24:19.251Z,7.53
2023-03-08T09:26:50.591Z,9.48
2023-03-08T09:29:18.771Z,7.47
2023-03-08T09:31:53.750Z,6.20
2023-03-08T09:34:28.633Z,8.93
2023-03-08T09:36:57.391Z,10.90
2023-03-08T09:39:29.417Z,7.22
2023-03-08T09:42:03.699Z,12.43
2023-03-08T09:44:45.805Z,9.82
2023-03-08T09:47:23.304Z,12.90
2023-03-08T09:49:53.967Z,8.52
2023-03-08T09:52:27.933Z,7.30
2023-03-08T09:54:56.047Z,5.50
2023-03-08T09:57:28.738Z,7.13
2023-03-08T10:00:02.586Z,6.93
2023-03-08T10:02:40.439Z,7.70
2023-03-08T10:05:14.468Z,7.30
2023-03-08T10:08:01.855Z,8.82
2023-03-08T10:10:37.954Z,8.48
2023-03-08T10:13:30.252Z,10.45
2023-03-08T10:16:07.246Z,4.82
2023-03-08T10:18:39.131Z,7.18
2023-03-08T10:21:09.862Z,6.25
2023-03-08T10:23:41.834Z,7.05
2023-03-08T10:26:16.689Z,7.20
2023-03-08T10:28:46.948Z,5.55
2023-03-08T10:31:23.487Z,6.63
2023-03-08T10:34:06.640Z,6.60
2023-03-08T10:36:34.807Z,8.85
2023-03-08T10:39:09.069Z,5.82
2023-03-08T10:41:44.201Z,7.30
2023-03-08T10:44:17.651Z,5.88
2023-03-08T10:46:50.917Z,8.70
2023-03-08T10:49:23.254Z,5.70
2023-03-08T10:54:28.635Z,6.38
2023-03-08T10:56:59.241Z,8.65
2023-03-08T10:59:33.106Z,7.22
2023-03-08T11:02:03.275Z,7.60
2023-03-08T11:04:32.348Z,8.73
2023-03-08T11:07:12.975Z,5.00
2023-03-08T11:09:41.357Z,4.75
2023-03-08T11:12:25.173Z,5.82
2023-03-08T11:14:54.582Z,5.60
2023-03-08T11:17:25.511Z,7.82
2023-03-08T11:20:00.238Z,7.25
2023-03-08T11:22:37.362Z,6.85
2023-03-08T11:25:23.828Z,5.15
2023-03-08T11:28:06.018Z,6.13
2023-03-08T11:30:48.029Z,4.97
2023-03-08T11:33:41.906Z,8.48
2023-03-08T11:36:13.320Z,7.65
2023-03-08T11:38:43.442Z,7.63
2023-03-08T11:41:21.908Z,5.70
2023-03-08T11:44:11.173Z,5.85
2023-03-08T11:46:51.426Z,6.47
2023-03-08T11:49:32.989Z,10.27
2023-03-08T11:52:06.491Z,7.72
2023-03-08T11:54:47.434Z,6.50
2023-03-08T11:57:17.487Z,5.90
2023-03-08T11:59:48.737Z,7.97
2023-03-08T12:02:22.732Z,6.57
2023-03-08T12:05:01.759Z,6.20
2023-03-08T12:07:35.475Z,8.57
2023-03-08T12:10:06.674Z,7.88
2023-03-08T12:12:41.075Z,8.63
2023-03-08T12:15:19.965Z,7.05
2023-03-08T12:17:53.570Z,9.68
2023-03-08T12:20:22.445Z,5.00
2023-03-08T12:22:58.528Z,7.65
2023-03-08T12:25:29.015Z,8.00
2023-03-08T12:28:02.028Z,9.05
2023-03-08T12:30:45.688Z,9.07
2023-03-08T12:33:17.657Z,9.48
2023-03-08T12:35:53.766Z,9.05
2023-03-08T12:38:36.598Z,7.43
2023-03-08T12:41:07.023Z,7.55
2023-03-08T12:43:36.606Z,10.90
2023-03-08T12:46:08.112Z,6.60
2023-03-08T12:48:42.295Z,9.40
2023-03-08T12:51:21.907Z,7.50
2023-03-08T12:53:58.399Z,7.50
2023-03-08T12:56:31.906Z,6.72
2023-03-08T12:59:02.919Z,6.95
2023-03-08T13:01:38.749Z,9.30
2023-03-08T13:04:40.042Z,7.80
2023-03-08T13:07:18.878Z,6.22
2023-03-08T13:09:53.242Z,9.05
2023-03-08T13:12:29.512Z,6.88
2023-03-08T13:15:08.056Z,8.63
2023-03-08T13:17:42.536Z,7.55
2023-03-08T13:20:21.314Z,7.85
2023-03-08T13:23:07.344Z,7.20
2023-03-08T13:25:46.678Z,10.25
2023-03-08T13:28:18.084Z,12.05
2023-03-08T13:30:53.855Z,9.75
2023-03-08T13:33:27.891Z,10.77
2023-03-08T13:36:00.492Z,10.38
2023-03-08T13:38:31.732Z,9.73
2023-03-08T13:41:01.080Z,9.10
2023-03-08T13:43:30.984Z,9.18
2023-03-08T13:46:01.323Z,10.73
2023-03-08T13:48:34.872Z,8.32
2023-03-08T13:51:06.754Z,8.98
2023-03-08T13:53:40.388Z,10.73
2023-03-08T13:56:11.881Z,7.82
2023-03-08T13:58:42.653Z,11.30
2023-03-08T14:01:14.062Z,12.63
2023-03-08T14:03:50.324Z,10.80
2023-03-08T14:06:25.458Z,14.68
2023-03-08T14:08:58.972Z,11.45
2023-03-08T14:11:30.228Z,13.27
2023-03-08T14:14:02.626Z,14.73
2023-03-08T14:16:33.340Z,15.25
2023-03-08T14:19:11.276Z,14.65
2023-03-08T14:21:49.535Z,12.15
2023-03-08T14:24:25.279Z,10.45
2023-03-08T14:27:00.330Z,11.63
2023-03-08T14:29:29.466Z,9.25
2023-03-08T14:32:06.544Z,11.07
2023-03-08T14:34:39.474Z,12.07
2023-03-08T14:37:17.544Z,13.82
2023-03-08T14:39:48.202Z,9.02
2023-03-08T14:43:00.606Z,9.15
2023-03-08T14:45:34.309Z,11.23
2023-03-08T14:48:05.974Z,10.07
2023-03-08T14:50:36.429Z,10.10
2023-03-08T14:53:25.895Z,9.93
2023-03-08T14:55:53.980Z,8.43
2023-03-08T14:58:25.392Z,9.57
2023-03-08T15:00:58.286Z,10.63
2023-03-08T15:03:27.814Z,10.23
2023-03-08T15:05:56.512Z,10.40
2023-03-08T15:08:27.415Z,7.47
2023-03-08T15:10:56.921Z,8.50
2023-03-08T15:13:30.032Z,10.95
2023-03-08T15:15:58.600Z,12.95
2023-03-08T15:18:30.095Z,14.02
2023-03-08T15:21:01.422Z,15.10
2023-03-08T15:23:34.383Z,12.75
2023-03-08T15:26:04.046Z,12.98
2023-03-08T15:28:32.147Z,11.65
2023-03-08T15:31:00.983Z,13.70
2023-03-08T15:33:29.265Z,10.75
2023-03-08T15:35:58.038Z,10.82
2023-03-08T15:38:27.021Z,12.27
2023-03-08T15:40:59.584Z,13.15
2023-03-08T15:43:27.761Z,15.40
2023-03-08T15:45:56.051Z,15.65
2023-03-08T15:48:24.771Z,16.45
2023-03-08T15:50:52.800Z,17.75
2023-03-08T15:53:34.641Z,14.43
2023-03-08T15:56:05.358Z,16.23
2023-03-08T15:58:33.861Z,19.70
2023-03-08T16:01:01.977Z,23.23
2023-03-08T16:03:31.447Z,20.20
2023-03-08T16:06:00.256Z,20.80
2023-03-08T16:08:30.967Z,21.08
2023-03-08T16:11:03.860Z,22.17
2023-03-08T16:13:33.377Z,22.08
2023-03-08T16:16:02.841Z,23.85
2023-03-08T16:18:32.163Z,18.38
2023-03-08T16:21:00.232Z,19.67
2023-03-08T16:23:28.552Z,20.65
2023-03-08T16:26:13.945Z,17.17
2023-03-08T16:28:45.089Z,21.98
2023-03-08T16:31:13.835Z,20.17
2023-03-08T16:33:42.318Z,23.17
2023-03-08T16:36:10.486Z,25.20
2023-03-08T16:38:38.646Z,19.42
2023-03-08T16:41:13.164Z,37.83
2023-03-08T16:43:47.643Z,21.75
2023-03-08T16:46:21.587Z,20.73
2023-03-08T16:48:54.511Z,17.45
2023-03-08T16:51:24.939Z,25.55
2023-03-08T16:53:54.054Z,20.52
2023-03-08T16:56:23.578Z,21.38
2023-03-08T16:58:56.145Z,25.45
2023-03-08T17:01:24.846Z,27.48
2023-03-08T17:03:53.882Z,25.77
2023-03-08T17:06:24.215Z,24.98
2023-03-08T17:08:55.332Z,21.85
2023-03-08T17:11:26.148Z,28.52
2023-03-08T17:14:00.163Z,24.50
2023-03-08T17:16:29.827Z,26.35
2023-03-08T17:19:01.753Z,23.10
2023-03-08T17:21:38.709Z,27.77
2023-03-08T17:24:09.098Z,25.42
2023-03-08T17:26:41.366Z,27.08
2023-03-08T17:29:16.434Z,26.20
2023-03-08T17:31:47.146Z,33.33
2023-03-08T17:34:17.810Z,29.67
2023-03-08T17:36:56.486Z,30.77
2023-03-08T17:39:31.694Z,31.27
2023-03-08T17:42:00.459Z,32.08
2023-03-08T17:44:29.855Z,35.95
2023-03-08T17:46:58.125Z,36.60
2023-03-08T17:49:26.297Z,36.53
2023-03-08T17:51:55.176Z,33.20
2023-03-08T17:54:27.935Z,34.40
2023-03-08T17:56:56.272Z,39.28
2023-03-08T17:59:24.340Z,38.97
2023-03-08T18:01:53.727Z,43.15
2023-03-08T18:04:23.470Z,38.60
2023-03-08T18:06:51.690Z,37.50
2023-03-08T18:09:19.682Z,37.35
2023-03-08T18:11:48.273Z,40.55
2023-03-08T18:14:17.060Z,39.47
2023-03-08T18:16:45.649Z,41.38
2023-03-08T18:19:15.498Z,37.40
2023-03-08T18:21:43.644Z,44.25
2023-03-08T18:24:14.216Z,39.40
2023-03-08T18:26:43.074Z,38.30
2023-03-08T18:29:12.904Z,35.60
2023-03-08T18:31:41.314Z,34.55
2023-03-08T18:34:09.665Z,34.83
2023-03-08T18:36:39.744Z,38.47
2023-03-08T18:39:12.086Z,34.90
2023-03-08T18:41:40.540Z,38.55
2023-03-08T18:44:11.788Z,31.52
2023-03-08T18:46:40.243Z,36.13
2023-03-08T18:49:09.754Z,34.05
2023-03-08T18:51:42.002Z,36.65
2023-03-08T18:54:12.365Z,32.88
2023-03-08T18:56:40.475Z,33.40
2023-03-08T18:59:09.216Z,31.95
2023-03-08T19:01:37.621Z,33.33
2023-03-08T19:04:10.136Z,36.30
2023-03-08T19:06:39.696Z,33.17
2023-03-08T19:09:12.105Z,35.45
2023-03-08T19:11:40.433Z,35.90
2023-03-08T19:14:09.341Z,36.30
2023-03-08T19:16:37.871Z,33.35
2023-03-08T19:19:07.539Z,36.33
2023-03-08T19:21:37.432Z,38.33
2023-03-08T19:24:08.642Z,40.03
2023-03-08T19:26:38.958Z,37.27
2023-03-08T19:29:10.779Z,38.22
2023-03-08T19:31:40.735Z,37.63
2023-03-08T19:34:10.350Z,41.58
2023-03-08T19:36:38.890Z,44.58
2023-03-08T19:39:09.908Z,39.67
2023-03-08T19:41:37.966Z,38.60
2023-03-08T19:44:07.109Z,41.30
2023-03-08T19:46:36.957Z,36.63
2023-03-08T19:49:07.196Z,40.97
2023-03-08T19:51:36.187Z,41.30
2023-03-08T19:54:06.111Z,33.15
2023-03-08T19:56:36.098Z,34.85
2023-03-08T19:59:04.997Z,36.40
2023-03-08T20:01:33.214Z,34.22
2023-03-08T20:04:01.648Z,34.20
2023-03-08T20:06:32.282Z,33.72
2023-03-08T20:09:01.663Z,28.67
2023-03-08T20:11:32.561Z,34.65
2023-03-08T20:14:02.243Z,35.28
2023-03-08T20:16:30.810Z,32.92
2023-03-08T20:18:59.249Z,33.97
2023-03-08T20:21:31.604Z,33.55
2023-03-08T20:24:02.270Z,34.80
2023-03-08T20:26:56.102Z,33.55
2023-03-08T20:29:30.771Z,30.60
2023-03-08T20:32:09.398Z,32.63
2023-03-08T20:35:04.619Z,30.83
2023-03-08T20:37:33.064Z,30.10
2023-03-08T20:40:08.933Z,31.00
2023-03-08T20:42:37.791Z,29.15
2023-03-08T20:45:09.057Z,29.08
2023-03-08T20:47:39.708Z,32.03
2023-03-08T20:50:10.395Z,30.30
2023-03-08T20:52:38.851Z,33.25
2023-03-08T20:55:09.069Z,31.67
2023-03-08T20:57:37.481Z,31.23
2023-03-08T21:00:09.674Z,29.60
2023-03-08T21:02:38.310Z,31.08
2023-03-08T21:05:07.770Z,31.30
2023-03-08T21:07:36.383Z,30.52
2023-03-08T21:10:05.259Z,33.78
2023-03-08T21:12:33.565Z,30.25
2023-03-08T21:15:05.182Z,29.17
2023-03-08T21:17:40.046Z,33.88
2023-03-08T21:20:11.196Z,30.55
2023-03-08T21:22:39.581Z,27.40
2023-03-08T21:25:09.522Z,31.25
2023-03-08T21:27:38.739Z,32.38
2023-03-08T21:30:08.315Z,29.30
2023-03-08T21:32:39.088Z,31.35
2023-03-08T21:35:08.476Z,31.95
2023-03-08T21:37:36.773Z,33.08
2023-03-08T21:40:07.877Z,32.58
2023-03-08T21:42:36.207Z,33.30
2023-03-08T21:45:04.958Z,36.28
2023-03-08T21:47:33.234Z,35.97
2023-03-08T21:50:03.153Z,40.20
2023-03-08T21:52:31.652Z,38.40
2023-03-08T21:55:00.110Z,31.85
2023-03-08T21:57:28.816Z,40.97
2023-03-08T21:59:59.205Z,39.65
2023-03-08T22:02:27.468Z,35.42
2023-03-08T22:04:56.311Z,43.78
2023-03-08T22:07:25.635Z,39.47
2023-03-08T22:09:54.039Z,39.15
2023-03-08T22:12:22.106Z,41.00
2023-03-08T22:14:51.093Z,37.97
2023-03-08T22:17:20.229Z,47.78
2023-03-08T22:19:48.314Z,36.58
2023-03-08T22:22:17.000Z,34.88
2023-03-08T22:24:46.901Z,36.00
2023-03-08T22:27:16.382Z,31.88
2023-03-08T22:29:44.867Z,31.38
2023-03-08T22:32:12.947Z,30.33
2023-03-08T22:34:42.359Z,36.00
2023-03-08T22:37:13.145Z,37.63
2023-03-08T22:39:41.778Z,38.50
2023-03-08T22:42:11.772Z,28.25
2023-03-08T22:44:40.091Z,39.60
2023-03-08T22:47:09.642Z,34.50
2023-03-08T22:49:38.362Z,38.15
2023-03-08T22:52:09.845Z,36.17
2023-03-08T22:54:38.112Z,40.47
2023-03-08T22:57:06.646Z,39.67
2023-03-08T22:59:36.606Z,42.67
2023-03-08T23:02:06.260Z,41.30
2023-03-08T23:04:37.398Z,38.00
2023-03-08T23:07:06.591Z,39.20
2023-03-08T23:09:36.805Z,41.45
2023-03-08T23:12:06.251Z,35.72
2023-03-08T23:14:37.879Z,37.25
2023-03-08T23:17:11.791Z,37.25
2023-03-08T23:19:45.108Z,39.90
2023-03-08T23:22:15.714Z,38.65
2023-03-08T23:24:45.268Z,37.75
2023-03-08T23:27:13.694Z,37.13
2023-03-08T23:29:43.213Z,39.67
2023-03-08T23:32:12.100Z,42.25
2023-03-08T23:34:42.065Z,37.80
2023-03-08T23:37:10.408Z,39.15
2023-03-08T23:39:38.579Z,41.33
2023-03-08T23:42:08.912Z,43.25
2023-03-08T23:44:37.061Z,39.83
2023-03-08T23:47:08.274Z,38.97
2023-03-08T23:49:37.175Z,34.20
2023-03-08T23:52:07.023Z,38.40
2023-03-08T23:54:35.398Z,34.70
2023-03-08T23:57:04.014Z,33.65
2023-03-08T23:59:34.086Z,29.65
